Terminal Aerodrome Forecast
Issued by NWS Cleveland, OH

Home | Current Version | Previous Version | Graphics & Text | Print | Product List | Glossary On
Versions: 1 2 3 4 5 6 7 8 9 10 11 12 13 14 15 16 17 18 19 20 21 22 23 24 25 26 27 28 29 30
000
FTUS41 KCLE 301700
TAFCLE
TAF
KCLE 301738Z 3018/3124 23006KT P6SM VCSH BKN040
     FM302000 01004KT P6SM BKN050
     FM310000 VRB04KT P6SM VCSH BKN040
     FM310500 25004KT P6SM SCT040
     FM311500 25008KT P6SM BKN040=

USA.gov is the U.S. government's official web portal to all federal, state and local government web resources and services.